Main page
METAR-TAF:

METAR-TAF

Airports :

Waskish Municipal Airport

Waskish, Minnesota, United States

latitude: 48-09-15N, longitude: 094-31-01W, elevation: 360 m

Current weather observation

The report was made 28 minutes ago, at 19:15 UTC
Wind 8 kt from the West
Temperature 12°C
Humidity 54%
Pressure 1013 hPa
Visibility: 16.1 km
Clear sky

METAR: KVWU 191915Z AUTO 26008KT 10SM CLR 12/03 A2992 RMK AO2

Time: 14:43 (19:43 UTC)


TAF: missing

Weather observations and forecasts of more than 4000 airports (METAR and TAF reports).

The available stations are represented by yellow and red dots on the map.

Hover mouse over dot to see the name of the station.

Then click to see weather observations and forecasts.

To change the map : click on the green buttons with a black cross to zoom in, on the green button with a dash to zoom out, or on the green arrows for adjacent maps.


METAR-TAF: